Stockett, MT (59480)

9:00 PM MDT on September 02, 2015 (GMT -0600)
6S Great Falls | | Change Station
CLOSE
Current Station
Personal Weather Station
Location: Great Falls, MT
Elevation: 3510 ft
Nearby Weather Stations
Active Advisory: Fire Weather Advisory

Elev 3510 ft 47.43 °N, 111.32 °W | Updated 14 seconds ago

Mostly Cloudy
Mostly Cloudy
68.9 °F
Feels Like 68.9 °F
N
13.6
Wind Variable Wind from NNE
Gusts 17.9 mph

Today
High -- | Low -- °F
--% Chance of Precip.
Yesterday
High -- | Low -- °F
Precip. -- in
6:44 AM 8:02 PM
Waning Gibbous, 75% visible
Pressure 29.73 in
Visibility 10.0 miles
Clouds Mostly Cloudy 13000 ft
Dew Point 38 °F
Humidity 33%
Rainfall 0.00 in
Snow Depth Not available.
UV 0 out of 12
Pollen 8.70 out of 12
Air Quality Not available.
Flu Activity Not available.
METAR KGFA 030156Z AUTO 03005KT 10SM BKN130 23/01 A2977 RMK AO2 SLP065 T02300009 TSNO $
Pressure 29.73 in
Visibility 10.0 miles
Clouds Mostly Cloudy 13000 ft
Dew Point 38 °F
Humidity 33%
Rainfall 0.00 in
Snow Depth Not available.
UV 0 out of 12
Pollen 8.70 out of 12
Air Quality Not available.
Flu Activity Not available.
METAR KGFA 030156Z AUTO 03005KT 10SM BKN130 23/01 A2977 RMK AO2 SLP065 T02300009 TSNO $

10-Day Weather Forecast

×

Almanac

Astronomy

Sep. 02, 2015 Rise Set
Actual Time
Civil Twilight
Nautical Twilight
Astronomical Twilight
Moon
Length of Visible Light
Length of Day
Tomorrow will be .
, % of the Moon is Illuminated

Today's Extremes

State Highs State Lows

Community

WunderPhotos

Upload Photos

1,851,892 photos uploaded!

WunderBlogs® & News

Nearby

Air Quality

  Air Quality AQ Index Pollutant
Not available.

Snow Depth

Station Depth Elevation

Earthquake Activity

City Distance Mag. Time & Date
Minimum magnitude displayed is 2.5.

Coastal Water Temperatures

Place Temperature

Stations

Nearby Weather Stations

Station Location Temp. Windchill Dew Point Humidity Wind Precip. Elev Updated Type
                   
Fire Weather Advisory
Statement as of 8:57 PM MDT on September 02, 2015

... Red flag warning will expire at 9 PM MDT this evening for gusty
winds and low humidity for fire weather zones 115... 117 and
118...

Relative humidity has increased across the area and winds have
decreased.